sensor_id;sensor_type;location;lat;lon;timestamp;pressure;altitude;pressure_sealevel;temperature;humidity
21781;BME280;52576;53.614;9.894;2023-06-14T00:01:38;101653.91;;;14.48;71.03
21781;BME280;52576;53.614;9.894;2023-06-14T00:03:42;101641.47;;;14.50;70.98
21781;BME280;52576;53.614;9.894;2023-06-14T00:05:46;101650.94;;;14.53;70.75
21781;BME280;52576;53.614;9.894;2023-06-14T00:07:50;101650.09;;;14.52;70.90
21781;BME280;52576;53.614;9.894;2023-06-14T00:09:55;101652.00;;;14.50;70.95
21781;BME280;52576;53.614;9.894;2023-06-14T00:11:58;101659.19;;;14.48;70.96
21781;BME280;52576;53.614;9.894;2023-06-14T00:14:01;101656.00;;;14.43;70.91
21781;BME280;52576;53.614;9.894;2023-06-14T00:16:05;101657.91;;;14.41;71.04
21781;BME280;52576;53.614;9.894;2023-06-14T00:18:08;101656.38;;;14.37;71.28
21781;BME280;52576;53.614;9.894;2023-06-14T00:20:15;101652.16;;;14.35;71.42
21781;BME280;52576;53.614;9.894;2023-06-14T00:22:18;101655.97;;;14.31;71.61
21781;BME280;52576;53.614;9.894;2023-06-14T00:24:22;101664.94;;;14.28;71.72
21781;BME280;52576;53.614;9.894;2023-06-14T00:26:25;101660.84;;;14.24;71.81
21781;BME280;52576;53.614;9.894;2023-06-14T00:28:28;101658.28;;;14.22;72.12
21781;BME280;52576;53.614;9.894;2023-06-14T00:30:32;101664.63;;;14.20;71.86
21781;BME280;52576;53.614;9.894;2023-06-14T00:32:36;101673.47;;;14.19;71.90
21781;BME280;52576;53.614;9.894;2023-06-14T00:34:40;101670.00;;;14.18;71.98
21781;BME280;52576;53.614;9.894;2023-06-14T00:36:44;101665.88;;;14.14;72.21
21781;BME280;52576;53.614;9.894;2023-06-14T00:38:48;101675.56;;;14.14;72.38
21781;BME280;52576;53.614;9.894;2023-06-14T00:40:52;101675.78;;;14.11;72.23
21781;BME280;52576;53.614;9.894;2023-06-14T00:42:55;101683.88;;;14.08;72.33
21781;BME280;52576;53.614;9.894;2023-06-14T00:44:59;101677.88;;;14.06;72.62
21781;BME280;52576;53.614;9.894;2023-06-14T00:47:04;101679.75;;;14.04;72.49
21781;BME280;52576;53.614;9.894;2023-06-14T00:49:08;101672.81;;;14.03;72.60
21781;BME280;52576;53.614;9.894;2023-06-14T00:51:11;101676.41;;;14.02;72.62
21781;BME280;52576;53.614;9.894;2023-06-14T00:53:16;101681.03;;;13.98;72.78
21781;BME280;52576;53.614;9.894;2023-06-14T00:55:20;101683.78;;;13.97;73.00
21781;BME280;52576;53.614;9.894;2023-06-14T00:57:23;101685.66;;;13.95;73.00
21781;BME280;52576;53.614;9.894;2023-06-14T00:59:27;101684.91;;;13.92;72.99
21781;BME280;52576;53.614;9.894;2023-06-14T01:01:30;101685.13;;;13.89;73.21
21781;BME280;52576;53.614;9.894;2023-06-14T01:03:34;101683.53;;;13.87;73.19
21781;BME280;52576;53.614;9.894;2023-06-14T01:05:38;101680.25;;;13.83;73.18
21781;BME280;52576;53.614;9.894;2023-06-14T01:08:05;101679.69;;;13.78;73.44
21781;BME280;52576;53.614;9.894;2023-06-14T01:10:26;101686.88;;;13.76;73.41
21781;BME280;52576;53.614;9.894;2023-06-14T01:12:39;101685.41;;;13.72;73.53
21781;BME280;52576;53.614;9.894;2023-06-14T01:14:46;101693.50;;;13.69;73.71
21781;BME280;52576;53.614;9.894;2023-06-14T01:16:54;101685.78;;;13.66;73.78
21781;BME280;52576;53.614;9.894;2023-06-14T01:18:59;101694.63;;;13.65;73.77
21781;BME280;52576;53.614;9.894;2023-06-14T01:21:04;101687.88;;;13.61;73.84
21781;BME280;52576;53.614;9.894;2023-06-14T01:23:09;101690.69;;;13.58;74.15
21781;BME280;52576;53.614;9.894;2023-06-14T01:25:14;101696.16;;;13.55;74.18
21781;BME280;52576;53.614;9.894;2023-06-14T01:27:19;101697.09;;;13.54;74.20
21781;BME280;52576;53.614;9.894;2023-06-14T01:29:24;101688.44;;;13.52;74.35
21781;BME280;52576;53.614;9.894;2023-06-14T01:31:30;101699.22;;;13.49;74.36
21781;BME280;52576;53.614;9.894;2023-06-14T01:33:41;101692.25;;;13.48;74.52
21781;BME280;52576;53.614;9.894;2023-06-14T01:35:48;101691.50;;;13.46;74.56
21781;BME280;52576;53.614;9.894;2023-06-14T01:37:51;101697.72;;;13.45;74.63
21781;BME280;52576;53.614;9.894;2023-06-14T01:39:57;101693.38;;;13.44;74.60
21781;BME280;52576;53.614;9.894;2023-06-14T01:42:01;101694.34;;;13.43;74.81
21781;BME280;52576;53.614;9.894;2023-06-14T01:44:05;101686.63;;;13.40;74.81
21781;BME280;52576;53.614;9.894;2023-06-14T01:46:08;101691.16;;;13.38;74.67
21781;BME280;52576;53.614;9.894;2023-06-14T01:48:12;101692.09;;;13.37;74.88
21781;BME280;52576;53.614;9.894;2023-06-14T01:50:16;101693.97;;;13.35;75.23
21781;BME280;52576;53.614;9.894;2023-06-14T01:52:21;101700.19;;;13.34;74.96
21781;BME280;52576;53.614;9.894;2023-06-14T01:54:26;101688.91;;;13.32;75.04
21781;BME280;52576;53.614;9.894;2023-06-14T01:56:31;101700.38;;;13.31;75.13
21781;BME280;52576;53.614;9.894;2023-06-14T01:58:34;101693.59;;;13.27;75.11
21781;BME280;52576;53.614;9.894;2023-06-14T02:00:38;101692.66;;;13.28;75.18
21781;BME280;52576;53.614;9.894;2023-06-14T02:02:42;101697.19;;;13.25;75.16
21781;BME280;52576;53.614;9.894;2023-06-14T02:04:45;101690.25;;;13.24;75.17
21781;BME280;52576;53.614;9.894;2023-06-14T02:06:49;101691.19;;;13.23;75.23
21781;BME280;52576;53.614;9.894;2023-06-14T02:08:52;101692.31;;;13.19;75.32
21781;BME280;52576;53.614;9.894;2023-06-14T02:10:55;101690.63;;;13.18;75.49
21781;BME280;52576;53.614;9.894;2023-06-14T02:13:00;101697.78;;;13.16;75.42
21781;BME280;52576;53.614;9.894;2023-06-14T02:15:04;101692.66;;;13.13;75.52
21781;BME280;52576;53.614;9.894;2023-06-14T02:17:08;101703.38;;;13.10;75.56
21781;BME280;52576;53.614;9.894;2023-06-14T02:19:11;101696.44;;;13.09;75.79
21781;BME280;52576;53.614;9.894;2023-06-14T02:21:15;101698.31;;;13.07;75.73
21781;BME280;52576;53.614;9.894;2023-06-14T02:23:20;101697.66;;;13.04;75.83
21781;BME280;52576;53.614;9.894;2023-06-14T02:25:25;101688.16;;;13.01;76.07
21781;BME280;52576;53.614;9.894;2023-06-14T02:27:30;101699.75;;;12.99;76.01
21781;BME280;52576;53.614;9.894;2023-06-14T02:29:34;101703.31;;;12.98;76.00
21781;BME280;52576;53.614;9.894;2023-06-14T02:31:38;101697.41;;;12.94;76.16
21781;BME280;52576;53.614;9.894;2023-06-14T02:33:41;101706.22;;;12.93;75.99
21781;BME280;52576;53.614;9.894;2023-06-14T02:35:45;101705.47;;;12.91;76.16
21781;BME280;52576;53.614;9.894;2023-06-14T02:37:49;101703.88;;;12.88;76.29
21781;BME280;52576;53.614;9.894;2023-06-14T02:39:53;101701.34;;;12.87;76.24
21781;BME280;52576;53.614;9.894;2023-06-14T02:41:56;101697.19;;;12.83;76.42
21781;BME280;52576;53.614;9.894;2023-06-14T02:44:01;101699.91;;;12.81;76.35
21781;BME280;52576;53.614;9.894;2023-06-14T02:46:06;101702.66;;;12.80;76.53
21781;BME280;52576;53.614;9.894;2023-06-14T02:48:10;101709.03;;;12.76;76.69
21781;BME280;52576;53.614;9.894;2023-06-14T02:50:15;101701.22;;;12.74;76.92
21781;BME280;52576;53.614;9.894;2023-06-14T02:52:19;101705.63;;;12.74;77.10
21781;BME280;52576;53.614;9.894;2023-06-14T02:54:23;101709.25;;;12.73;76.95
21781;BME280;52576;53.614;9.894;2023-06-14T02:56:27;101713.66;;;12.72;77.11
21781;BME280;52576;53.614;9.894;2023-06-14T02:58:31;101710.19;;;12.72;77.22
21781;BME280;52576;53.614;9.894;2023-06-14T03:00:35;101707.56;;;12.72;77.30
21781;BME280;52576;53.614;9.894;2023-06-14T03:02:42;101709.34;;;12.71;77.25
21781;BME280;52576;53.614;9.894;2023-06-14T03:04:47;101709.44;;;12.70;77.42
21781;BME280;52576;53.614;9.894;2023-06-14T03:06:52;101708.50;;;12.71;77.62
21781;BME280;52576;53.614;9.894;2023-06-14T03:08:57;101717.31;;;12.70;77.61
21781;BME280;52576;53.614;9.894;2023-06-14T03:11:03;101709.44;;;12.70;77.74
21781;BME280;52576;53.614;9.894;2023-06-14T03:13:09;101716.38;;;12.71;78.19
21781;BME280;52576;53.614;9.894;2023-06-14T03:15:13;101717.31;;;12.70;78.13
21781;BME280;52576;53.614;9.894;2023-06-14T03:17:20;101719.94;;;12.70;78.17
21781;BME280;52576;53.614;9.894;2023-06-14T03:19:25;101719.94;;;12.70;78.28
21781;BME280;52576;53.614;9.894;2023-06-14T03:21:30;101723.44;;;12.70;78.38
21781;BME280;52576;53.614;9.894;2023-06-14T03:23:35;101733.84;;;12.72;78.40
21781;BME280;52576;53.614;9.894;2023-06-14T03:25:39;101725.03;;;12.73;78.42
21781;BME280;52576;53.614;9.894;2023-06-14T03:27:46;101726.69;;;12.74;78.49
21781;BME280;52576;53.614;9.894;2023-06-14T03:29:49;101714.38;;;12.74;78.41
21781;BME280;52576;53.614;9.894;2023-06-14T03:32:00;101725.66;;;12.76;78.48
21781;BME280;52576;53.614;9.894;2023-06-14T03:34:12;101722.94;;;12.78;78.65
21781;BME280;52576;53.614;9.894;2023-06-14T03:36:17;101729.88;;;12.79;78.58
21781;BME280;52576;53.614;9.894;2023-06-14T03:38:20;101728.00;;;12.81;78.65
21781;BME280;52576;53.614;9.894;2023-06-14T03:40:25;101728.78;;;12.83;78.52
21781;BME280;52576;53.614;9.894;2023-06-14T03:42:35;101739.19;;;12.84;78.76
21781;BME280;52576;53.614;9.894;2023-06-14T03:44:39;101735.72;;;12.84;78.49
21781;BME280;52576;53.614;9.894;2023-06-14T03:46:42;101737.31;;;12.86;78.59
21781;BME280;52576;53.614;9.894;2023-06-14T03:48:46;101742.50;;;12.88;78.63
21781;BME280;52576;53.614;9.894;2023-06-14T03:50:49;101740.63;;;12.90;78.75
21781;BME280;52576;53.614;9.894;2023-06-14T03:52:54;101744.94;;;12.91;78.65
21781;BME280;52576;53.614;9.894;2023-06-14T03:54:57;101743.91;;;12.94;78.62
21781;BME280;52576;53.614;9.894;2023-06-14T03:57:06;101748.16;;;12.96;78.67
21781;BME280;52576;53.614;9.894;2023-06-14T03:59:09;101742.69;;;12.99;78.53
21781;BME280;52576;53.614;9.894;2023-06-14T04:01:13;101748.69;;;13.01;78.68
21781;BME280;52576;53.614;9.894;2023-06-14T04:03:16;101756.41;;;13.04;78.65
21781;BME280;52576;53.614;9.894;2023-06-14T04:05:21;101761.47;;;13.07;78.62
21781;BME280;52576;53.614;9.894;2023-06-14T04:07:29;101762.97;;;13.11;78.52
21781;BME280;52576;53.614;9.894;2023-06-14T04:09:34;101764.53;;;13.15;78.53
21781;BME280;52576;53.614;9.894;2023-06-14T04:11:38;101775.72;;;13.19;78.46
21781;BME280;52576;53.614;9.894;2023-06-14T04:13:41;101775.53;;;13.22;78.24
21781;BME280;52576;53.614;9.894;2023-06-14T04:15:44;101776.16;;;13.25;78.04
21781;BME280;52576;53.614;9.894;2023-06-14T04:17:52;101782.94;;;13.30;78.15
21781;BME280;52576;53.614;9.894;2023-06-14T04:20:00;101793.28;;;13.33;78.15
21781;BME280;52576;53.614;9.894;2023-06-14T04:22:04;101785.94;;;13.38;78.05
21781;BME280;52576;53.614;9.894;2023-06-14T04:24:09;101791.78;;;13.43;77.80
21781;BME280;52576;53.614;9.894;2023-06-14T04:26:18;101787.06;;;13.48;77.63
21781;BME280;52576;53.614;9.894;2023-06-14T04:28:22;101795.50;;;13.53;77.57
21781;BME280;52576;53.614;9.894;2023-06-14T04:30:31;101794.38;;;13.57;77.52
21781;BME280;52576;53.614;9.894;2023-06-14T04:32:34;101791.53;;;13.60;77.48
21781;BME280;52576;53.614;9.894;2023-06-14T04:34:43;101793.91;;;13.65;77.40
21781;BME280;52576;53.614;9.894;2023-06-14T04:36:46;101792.84;;;13.67;77.28
21781;BME280;52576;53.614;9.894;2023-06-14T04:38:59;101794.34;;;13.71;77.02
21781;BME280;52576;53.614;9.894;2023-06-14T04:41:02;101793.13;;;13.77;76.93
21781;BME280;52576;53.614;9.894;2023-06-14T04:43:08;101790.16;;;13.81;76.77
21781;BME280;52576;53.614;9.894;2023-06-14T04:45:16;101791.66;;;13.85;76.66
21781;BME280;52576;53.614;9.894;2023-06-14T04:47:20;101788.66;;;13.91;76.58
21781;BME280;52576;53.614;9.894;2023-06-14T04:49:24;101795.31;;;13.97;76.25
21781;BME280;52576;53.614;9.894;2023-06-14T04:51:29;101787.13;;;14.02;76.25
21781;BME280;52576;53.614;9.894;2023-06-14T04:53:33;101786.69;;;14.08;76.34
21781;BME280;52576;53.614;9.894;2023-06-14T04:55:36;101786.31;;;14.14;76.08
21781;BME280;52576;53.614;9.894;2023-06-14T04:57:40;101789.50;;;14.19;75.84
21781;BME280;52576;53.614;9.894;2023-06-14T04:59:45;101788.25;;;14.24;75.41
21781;BME280;52576;53.614;9.894;2023-06-14T05:01:49;101787.72;;;14.32;75.13
21781;BME280;52576;53.614;9.894;2023-06-14T05:03:53;101792.59;;;14.38;74.93
21781;BME280;52576;53.614;9.894;2023-06-14T05:05:56;101798.44;;;14.43;74.64
21781;BME280;52576;53.614;9.894;2023-06-14T05:07:59;101788.34;;;14.50;74.42
21781;BME280;52576;53.614;9.894;2023-06-14T05:10:03;101790.66;;;14.54;74.16
21781;BME280;52576;53.614;9.894;2023-06-14T05:12:08;101795.50;;;14.60;74.18
21781;BME280;52576;53.614;9.894;2023-06-14T05:14:12;101794.25;;;14.66;73.57
21781;BME280;52576;53.614;9.894;2023-06-14T05:16:17;101805.25;;;14.73;73.47
21781;BME280;52576;53.614;9.894;2023-06-14T05:18:21;101795.97;;;14.80;73.41
21781;BME280;52576;53.614;9.894;2023-06-14T05:20:25;101791.19;;;14.85;73.08
21781;BME280;52576;53.614;9.894;2023-06-14T05:22:28;101782.88;;;14.91;73.25
21781;BME280;52576;53.614;9.894;2023-06-14T05:24:31;101789.53;;;14.97;73.12
21781;BME280;52576;53.614;9.894;2023-06-14T05:26:35;101782.03;;;15.03;73.01
21781;BME280;52576;53.614;9.894;2023-06-14T05:28:38;101785.06;;;15.10;72.59
21781;BME280;52576;53.614;9.894;2023-06-14T05:30:41;101792.34;;;15.19;72.42
21781;BME280;52576;53.614;9.894;2023-06-14T05:32:47;101795.44;;;15.25;72.24
21781;BME280;52576;53.614;9.894;2023-06-14T05:34:50;101793.31;;;15.31;71.57
21781;BME280;52576;53.614;9.894;2023-06-14T05:36:53;101795.50;;;15.37;71.41
21781;BME280;52576;53.614;9.894;2023-06-14T05:38:57;101799.50;;;15.42;71.49
21781;BME280;52576;53.614;9.894;2023-06-14T05:41:02;101798.22;;;15.48;71.02
21781;BME280;52576;53.614;9.894;2023-06-14T05:43:05;101796.13;;;15.53;70.81
21781;BME280;52576;53.614;9.894;2023-06-14T05:45:08;101797.63;;;15.57;70.50
21781;BME280;52576;53.614;9.894;2023-06-14T05:47:12;101793.78;;;15.61;70.49
21781;BME280;52576;53.614;9.894;2023-06-14T05:49:16;101794.28;;;15.66;70.41
21781;BME280;52576;53.614;9.894;2023-06-14T05:51:20;101796.50;;;15.72;70.25
21781;BME280;52576;53.614;9.894;2023-06-14T05:53:23;101797.75;;;15.79;70.03
21781;BME280;52576;53.614;9.894;2023-06-14T05:55:27;101793.69;;;15.86;69.58
21781;BME280;52576;53.614;9.894;2023-06-14T05:57:30;101801.19;;;15.92;69.37
21781;BME280;52576;53.614;9.894;2023-06-14T05:59:33;101800.00;;;15.97;69.12
21781;BME280;52576;53.614;9.894;2023-06-14T06:01:37;101795.97;;;16.04;68.89
21781;BME280;52576;53.614;9.894;2023-06-14T06:03:42;101802.25;;;16.14;68.87
21781;BME280;52576;53.614;9.894;2023-06-14T06:05:49;101806.88;;;16.23;68.71
21781;BME280;52576;53.614;9.894;2023-06-14T06:07:52;101801.75;;;16.33;68.00
21781;BME280;52576;53.614;9.894;2023-06-14T06:09:56;101810.78;;;16.41;67.52
21781;BME280;52576;53.614;9.894;2023-06-14T06:11:59;101808.41;;;16.49;67.42
21781;BME280;52576;53.614;9.894;2023-06-14T06:14:02;101806.88;;;16.58;67.01
21781;BME280;52576;53.614;9.894;2023-06-14T06:16:05;101802.81;;;16.65;66.62
21781;BME280;52576;53.614;9.894;2023-06-14T06:18:09;101805.97;;;16.70;66.44
21781;BME280;52576;53.614;9.894;2023-06-14T06:20:12;101809.97;;;16.76;66.29
21781;BME280;52576;53.614;9.894;2023-06-14T06:22:17;101810.34;;;16.82;65.53
21781;BME280;52576;53.614;9.894;2023-06-14T06:24:20;101805.44;;;16.89;64.97
21781;BME280;52576;53.614;9.894;2023-06-14T06:26:23;101808.44;;;16.95;64.79
21781;BME280;52576;53.614;9.894;2023-06-14T06:28:28;101817.47;;;17.04;64.64
21781;BME280;52576;53.614;9.894;2023-06-14T06:30:32;101811.34;;;17.15;64.35
21781;BME280;52576;53.614;9.894;2023-06-14T06:32:35;101805.31;;;17.24;63.95
21781;BME280;52576;53.614;9.894;2023-06-14T06:34:38;101809.06;;;17.33;63.56
21781;BME280;52576;53.614;9.894;2023-06-14T06:36:41;101810.97;;;17.42;63.50
21781;BME280;52576;53.614;9.894;2023-06-14T06:38:46;101816.50;;;17.50;63.06
21781;BME280;52576;53.614;9.894;2023-06-14T06:40:49;101814.09;;;17.58;62.90
21781;BME280;52576;53.614;9.894;2023-06-14T06:42:53;101826.63;;;17.67;62.98
21781;BME280;52576;53.614;9.894;2023-06-14T06:44:56;101823.97;;;17.78;62.62
21781;BME280;52576;53.614;9.894;2023-06-14T06:46:59;101827.47;;;17.90;62.15
21781;BME280;52576;53.614;9.894;2023-06-14T06:49:02;101819.59;;;18.00;61.61
21781;BME280;52576;53.614;9.894;2023-06-14T06:51:06;101827.53;;;18.11;61.34
21781;BME280;52576;53.614;9.894;2023-06-14T06:53:09;101822.44;;;18.19;60.55
21781;BME280;52576;53.614;9.894;2023-06-14T06:55:15;101831.31;;;18.29;60.02
21781;BME280;52576;53.614;9.894;2023-06-14T06:57:19;101832.25;;;18.39;59.57
21781;BME280;52576;53.614;9.894;2023-06-14T06:59:22;101834.00;;;18.50;58.42
21781;BME280;52576;53.614;9.894;2023-06-14T07:01:25;101836.00;;;18.57;57.95
21781;BME280;52576;53.614;9.894;2023-06-14T07:03:31;101826.34;;;18.68;57.31
21781;BME280;52576;53.614;9.894;2023-06-14T07:05:34;101827.22;;;18.78;57.05
21781;BME280;52576;53.614;9.894;2023-06-14T07:07:37;101835.41;;;18.86;56.56
21781;BME280;52576;53.614;9.894;2023-06-14T07:09:40;101841.88;;;18.93;55.93
21781;BME280;52576;53.614;9.894;2023-06-14T07:11:46;101837.00;;;18.98;55.67
21781;BME280;52576;53.614;9.894;2023-06-14T07:13:50;101844.19;;;19.07;54.85
21781;BME280;52576;53.614;9.894;2023-06-14T07:15:57;101844.66;;;19.12;54.58
21781;BME280;52576;53.614;9.894;2023-06-14T07:18:01;101846.66;;;19.20;54.58
21781;BME280;52576;53.614;9.894;2023-06-14T07:20:05;101842.34;;;19.28;54.04
21781;BME280;52576;53.614;9.894;2023-06-14T07:22:15;101842.41;;;19.38;53.64
21781;BME280;52576;53.614;9.894;2023-06-14T07:24:18;101842.28;;;19.49;53.03
21781;BME280;52576;53.614;9.894;2023-06-14T07:26:23;101843.34;;;19.58;52.58
21781;BME280;52576;53.614;9.894;2023-06-14T07:28:28;101846.44;;;19.63;51.29
21781;BME280;52576;53.614;9.894;2023-06-14T07:30:31;101847.84;;;19.67;51.52
21781;BME280;52576;53.614;9.894;2023-06-14T07:32:34;101847.31;;;19.73;51.85
21781;BME280;52576;53.614;9.894;2023-06-14T07:34:38;101840.47;;;19.80;51.13
21781;BME280;52576;53.614;9.894;2023-06-14T07:36:41;101839.38;;;19.92;50.98
21781;BME280;52576;53.614;9.894;2023-06-14T07:38:46;101837.56;;;20.03;50.75
21781;BME280;52576;53.614;9.894;2023-06-14T07:40:49;101831.41;;;20.12;50.49
21781;BME280;52576;53.614;9.894;2023-06-14T07:42:52;101833.25;;;20.21;50.16
21781;BME280;52576;53.614;9.894;2023-06-14T07:44:58;101834.22;;;20.29;49.90
21781;BME280;52576;53.614;9.894;2023-06-14T07:47:01;101832.59;;;20.38;49.12
21781;BME280;52576;53.614;9.894;2023-06-14T07:49:04;101836.22;;;20.47;49.07
21781;BME280;52576;53.614;9.894;2023-06-14T07:51:08;101830.88;;;20.56;48.30
21781;BME280;52576;53.614;9.894;2023-06-14T07:53:12;101839.28;;;20.61;47.75
21781;BME280;52576;53.614;9.894;2023-06-14T07:55:15;101836.22;;;20.66;48.06
21781;BME280;52576;53.614;9.894;2023-06-14T07:57:20;101839.00;;;20.74;47.20
21781;BME280;52576;53.614;9.894;2023-06-14T07:59:23;101831.13;;;20.82;47.08
21781;BME280;52576;53.614;9.894;2023-06-14T08:01:28;101834.75;;;20.91;47.01
21781;BME280;52576;53.614;9.894;2023-06-14T08:03:31;101832.22;;;20.99;46.79
21781;BME280;52576;53.614;9.894;2023-06-14T08:05:34;101838.63;;;21.06;46.60
21781;BME280;52576;53.614;9.894;2023-06-14T08:07:38;101838.91;;;21.13;46.41
21781;BME280;52576;53.614;9.894;2023-06-14T08:09:41;101835.81;;;21.17;46.32
21781;BME280;52576;53.614;9.894;2023-06-14T08:11:44;101828.81;;;21.26;46.00
21781;BME280;52576;53.614;9.894;2023-06-14T08:13:47;101831.84;;;21.31;45.43
21781;BME280;52576;53.614;9.894;2023-06-14T08:15:51;101825.38;;;21.33;45.43
21781;BME280;52576;53.614;9.894;2023-06-14T08:17:55;101829.16;;;21.41;45.42
21781;BME280;52576;53.614;9.894;2023-06-14T08:20:01;101825.59;;;21.50;44.72
21781;BME280;52576;53.614;9.894;2023-06-14T08:22:06;101828.69;;;21.55;44.41
21781;BME280;52576;53.614;9.894;2023-06-14T08:24:11;101821.34;;;21.57;44.53
21781;BME280;52576;53.614;9.894;2023-06-14T08:26:15;101827.50;;;21.57;44.17
21781;BME280;52576;53.614;9.894;2023-06-14T08:28:18;101827.50;;;21.57;43.51
21781;BME280;52576;53.614;9.894;2023-06-14T08:30:21;101829.34;;;21.57;43.62
21781;BME280;52576;53.614;9.894;2023-06-14T08:32:24;101829.19;;;21.58;43.54
21781;BME280;52576;53.614;9.894;2023-06-14T08:34:29;101833.09;;;21.64;43.35
21781;BME280;52576;53.614;9.894;2023-06-14T08:36:32;101826.50;;;21.68;43.19
21781;BME280;52576;53.614;9.894;2023-06-14T08:38:36;101824.22;;;21.73;43.36
21781;BME280;52576;53.614;9.894;2023-06-14T08:40:40;101821.81;;;21.80;43.26
21781;BME280;52576;53.614;9.894;2023-06-14T08:42:44;101823.69;;;21.87;43.30
21781;BME280;52576;53.614;9.894;2023-06-14T08:44:49;101825.16;;;21.99;42.96
21781;BME280;52576;53.614;9.894;2023-06-14T08:46:53;101823.97;;;22.12;42.71
21781;BME280;52576;53.614;9.894;2023-06-14T08:48:58;101827.28;;;22.23;42.13
21781;BME280;52576;53.614;9.894;2023-06-14T08:51:04;101818.34;;;22.32;42.06
21781;BME280;52576;53.614;9.894;2023-06-14T08:53:08;101822.22;;;22.38;42.15
21781;BME280;52576;53.614;9.894;2023-06-14T08:55:15;101827.78;;;22.45;41.08
21781;BME280;52576;53.614;9.894;2023-06-14T08:57:20;101834.50;;;22.49;41.28
21781;BME280;52576;53.614;9.894;2023-06-14T08:59:24;101828.03;;;22.51;41.15
21781;BME280;52576;53.614;9.894;2023-06-14T09:01:29;101829.94;;;22.59;41.18
21781;BME280;52576;53.614;9.894;2023-06-14T09:03:33;101836.31;;;22.66;41.06
21781;BME280;52576;53.614;9.894;2023-06-14T09:05:36;101824.16;;;22.72;41.15
21781;BME280;52576;53.614;9.894;2023-06-14T09:07:41;101821.59;;;22.80;41.02
21781;BME280;52576;53.614;9.894;2023-06-14T09:09:45;101824.13;;;22.89;40.97
21781;BME280;52576;53.614;9.894;2023-06-14T09:12:08;101829.75;;;23.04;40.96
21781;BME280;52576;53.614;9.894;2023-06-14T09:14:13;101825.13;;;23.14;40.68
21781;BME280;52576;53.614;9.894;2023-06-14T09:16:16;101825.84;;;23.24;40.42
21781;BME280;52576;53.614;9.894;2023-06-14T09:18:20;101826.59;;;23.34;40.32
21781;BME280;52576;53.614;9.894;2023-06-14T09:20:24;101825.28;;;23.47;39.97
21781;BME280;52576;53.614;9.894;2023-06-14T09:22:29;101833.06;;;23.58;39.75
21781;BME280;52576;53.614;9.894;2023-06-14T09:24:35;101830.41;;;23.66;39.32
21781;BME280;52576;53.614;9.894;2023-06-14T09:26:39;101831.91;;;23.68;39.14
21781;BME280;52576;53.614;9.894;2023-06-14T09:28:43;101830.41;;;23.66;39.38
21781;BME280;52576;53.614;9.894;2023-06-14T09:30:47;101825.06;;;23.66;38.81
21781;BME280;52576;53.614;9.894;2023-06-14T09:32:51;101834.75;;;23.67;38.59
21781;BME280;52576;53.614;9.894;2023-06-14T09:34:54;101836.09;;;23.63;38.57
21781;BME280;52576;53.614;9.894;2023-06-14T09:36:58;101828.19;;;23.53;37.94
21781;BME280;52576;53.614;9.894;2023-06-14T09:39:02;101824.94;;;23.42;38.58
21781;BME280;52576;53.614;9.894;2023-06-14T09:41:09;101827.59;;;23.42;38.25
21781;BME280;52576;53.614;9.894;2023-06-14T09:43:12;101830.63;;;23.47;38.19
21781;BME280;52576;53.614;9.894;2023-06-14T09:45:15;101830.31;;;23.50;38.31
21781;BME280;52576;53.614;9.894;2023-06-14T09:47:24;101827.34;;;23.53;38.06
21781;BME280;52576;53.614;9.894;2023-06-14T09:49:27;101829.41;;;23.59;38.14
21781;BME280;52576;53.614;9.894;2023-06-14T09:51:35;101827.91;;;23.64;38.31
21781;BME280;52576;53.614;9.894;2023-06-14T09:53:41;101825.75;;;23.76;37.91
21781;BME280;52576;53.614;9.894;2023-06-14T09:55:48;101824.13;;;23.91;37.55
21781;BME280;52576;53.614;9.894;2023-06-14T09:57:54;101819.13;;;24.05;37.85
21781;BME280;52576;53.614;9.894;2023-06-14T10:00:02;101821.16;;;24.19;37.42
21781;BME280;52576;53.614;9.894;2023-06-14T10:02:21;101818.69;;;24.33;37.35
21781;BME280;52576;53.614;9.894;2023-06-14T10:04:25;101815.53;;;24.38;36.79
21781;BME280;52576;53.614;9.894;2023-06-14T10:06:30;101828.75;;;24.31;36.61
21781;BME280;52576;53.614;9.894;2023-06-14T10:08:36;101824.69;;;24.11;36.96
21781;BME280;52576;53.614;9.894;2023-06-14T10:10:39;101826.16;;;23.97;36.87
21781;BME280;52576;53.614;9.894;2023-06-14T10:12:43;101820.59;;;23.83;37.34
21781;BME280;52576;53.614;9.894;2023-06-14T10:14:49;101827.41;;;23.69;37.26
21781;BME280;52576;53.614;9.894;2023-06-14T10:16:56;101824.06;;;23.67;37.91
21781;BME280;52576;53.614;9.894;2023-06-14T10:19:19;101823.59;;;23.80;37.98
21781;BME280;52576;53.614;9.894;2023-06-14T10:21:31;101817.09;;;23.98;37.35
21781;BME280;52576;53.614;9.894;2023-06-14T10:23:37;101812.09;;;24.03;37.28
21781;BME280;52576;53.614;9.894;2023-06-14T10:25:42;101811.78;;;24.07;37.60
21781;BME280;52576;53.614;9.894;2023-06-14T10:27:45;101812.78;;;24.14;37.49
21781;BME280;52576;53.614;9.894;2023-06-14T10:30:07;101822.16;;;24.10;37.47
21781;BME280;52576;53.614;9.894;2023-06-14T10:32:11;101814.63;;;24.05;37.26
21781;BME280;52576;53.614;9.894;2023-06-14T10:34:22;101820.47;;;24.00;37.45
21781;BME280;52576;53.614;9.894;2023-06-14T10:36:27;101816.94;;;24.00;37.75
21781;BME280;52576;53.614;9.894;2023-06-14T10:38:32;101806.94;;;24.10;37.54
21781;BME280;52576;53.614;9.894;2023-06-14T10:40:38;101811.16;;;24.29;37.55
21781;BME280;52576;53.614;9.894;2023-06-14T10:42:51;101808.47;;;24.37;36.89
21781;BME280;52576;53.614;9.894;2023-06-14T10:44:55;101806.81;;;24.28;36.74
21781;BME280;52576;53.614;9.894;2023-06-14T10:47:00;101808.94;;;24.08;36.56
21781;BME280;52576;53.614;9.894;2023-06-14T10:49:04;101812.09;;;23.87;36.77
21781;BME280;52576;53.614;9.894;2023-06-14T10:51:15;101802.19;;;23.80;37.45
21781;BME280;52576;53.614;9.894;2023-06-14T10:53:22;101796.50;;;23.91;37.77